createdAt,value
2023-04-16T00:01:57.303Z,98555.00
2023-04-16T00:04:24.439Z,98565.00
2023-04-16T00:06:52.369Z,98571.00
2023-04-16T00:09:19.345Z,98572.00
2023-04-16T00:11:46.256Z,98562.00
2023-04-16T00:14:14.027Z,98566.00
2023-04-16T00:16:40.969Z,98554.00
2023-04-16T00:19:08.960Z,98566.00
2023-04-16T00:21:36.722Z,98537.00
2023-04-16T00:24:03.827Z,98553.00
2023-04-16T00:26:30.962Z,98569.00
2023-04-16T00:28:58.379Z,98554.00
2023-04-16T00:31:33.262Z,98559.00
2023-04-16T00:34:00.563Z,98560.00
2023-04-16T00:36:27.983Z,98558.00
2023-04-16T00:38:55.205Z,98570.00
2023-04-16T00:41:22.212Z,98560.00
2023-04-16T00:43:49.936Z,98557.00
2023-04-16T00:46:17.722Z,98555.00
2023-04-16T00:48:45.199Z,98548.00
2023-04-16T00:51:12.119Z,98545.00
2023-04-16T00:53:39.832Z,98549.00
2023-04-16T00:56:07.491Z,98553.00
2023-04-16T00:58:35.126Z,98515.00
2023-04-16T01:01:02.293Z,98552.00
2023-04-16T01:03:47.428Z,98548.00
2023-04-16T01:06:15.306Z,98526.00
2023-04-16T01:08:42.155Z,98543.00
2023-04-16T01:11:10.346Z,98544.00
2023-04-16T01:13:37.264Z,98541.00
2023-04-16T01:16:04.581Z,98543.00
2023-04-16T01:18:31.452Z,98536.00
2023-04-16T01:20:58.419Z,98544.00
2023-04-16T01:23:25.293Z,98537.00
2023-04-16T01:25:52.215Z,98538.00
2023-04-16T01:28:19.127Z,98550.00
2023-04-16T01:30:46.035Z,98534.00
2023-04-16T01:33:13.465Z,98546.00
2023-04-16T01:35:40.727Z,98525.00
2023-04-16T01:38:08.483Z,98525.00
2023-04-16T01:40:36.182Z,98534.00
2023-04-16T01:43:03.370Z,98538.00
2023-04-16T01:45:32.275Z,98524.00
2023-04-16T01:47:59.207Z,98527.00
2023-04-16T01:50:26.118Z,98526.00
2023-04-16T01:52:53.029Z,98540.00
2023-04-16T01:55:19.964Z,98520.00
2023-04-16T01:57:46.815Z,98513.00
2023-04-16T02:00:13.774Z,98524.00
2023-04-16T02:02:40.792Z,98519.00
2023-04-16T02:05:08.050Z,98535.00
2023-04-16T02:07:34.914Z,98517.00
2023-04-16T02:10:01.873Z,98507.00
2023-04-16T02:12:28.771Z,98507.00
2023-04-16T02:14:55.670Z,98508.00
2023-04-16T02:17:22.632Z,98512.00
2023-04-16T02:19:49.596Z,98513.00
2023-04-16T02:22:16.517Z,98515.00
2023-04-16T02:24:43.376Z,98515.00
2023-04-16T02:27:10.262Z,98510.00
2023-04-16T02:29:37.111Z,98510.00
2023-04-16T02:32:04.293Z,98520.00
2023-04-16T02:34:31.218Z,98520.00
2023-04-16T02:36:58.093Z,98527.00
2023-04-16T02:39:24.974Z,98521.00
2023-04-16T02:41:51.884Z,98522.00
2023-04-16T02:44:20.697Z,98537.00
2023-04-16T02:46:47.553Z,98521.00
2023-04-16T02:49:14.413Z,98524.00
2023-04-16T02:51:41.334Z,98521.00
2023-04-16T02:54:08.297Z,98535.00
2023-04-16T02:56:35.172Z,98535.00
2023-04-16T02:59:02.115Z,98516.00
2023-04-16T03:01:29.179Z,98534.00
2023-04-16T03:03:56.163Z,98539.00
2023-04-16T03:06:23.127Z,98530.00
2023-04-16T03:08:50.021Z,98536.00
2023-04-16T03:11:16.981Z,98545.00
2023-04-16T03:13:44.274Z,98546.00
2023-04-16T03:16:11.268Z,98534.00
2023-04-16T03:18:38.184Z,98540.00
2023-04-16T03:21:05.480Z,98527.00
2023-04-16T03:23:32.457Z,98523.00
2023-04-16T03:25:59.371Z,98541.00
2023-04-16T03:28:26.289Z,98537.00
2023-04-16T03:30:53.627Z,98529.00
2023-04-16T03:33:20.820Z,98534.00
2023-04-16T03:35:47.740Z,98537.00
2023-04-16T03:38:14.646Z,98524.00
2023-04-16T03:40:41.569Z,98557.00
2023-04-16T03:43:08.472Z,98540.00
2023-04-16T03:45:35.312Z,98543.00
2023-04-16T03:48:02.222Z,98531.00
2023-04-16T03:50:29.115Z,98534.00
2023-04-16T03:52:56.001Z,98538.00
2023-04-16T03:55:22.864Z,98537.00
2023-04-16T03:57:49.761Z,98538.00
2023-04-16T04:00:16.743Z,98529.00
2023-04-16T04:02:43.840Z,98540.00
2023-04-16T04:05:10.961Z,98542.00
2023-04-16T04:07:37.833Z,98535.00
2023-04-16T04:10:05.227Z,98536.00
2023-04-16T04:12:32.361Z,98546.00
2023-04-16T04:14:59.229Z,98550.00
2023-04-16T04:17:26.141Z,98547.00
2023-04-16T04:20:00.899Z,98527.00
2023-04-16T04:22:28.701Z,98550.00
2023-04-16T04:24:55.591Z,98536.00
2023-04-16T04:27:22.514Z,98543.00
2023-04-16T04:29:49.378Z,98549.00
2023-04-16T04:32:16.317Z,98531.00
2023-04-16T04:34:43.230Z,98555.00
2023-04-16T04:37:10.116Z,98555.00
2023-04-16T04:39:37.053Z,98567.00
2023-04-16T04:42:04.011Z,98553.00
2023-04-16T04:44:30.894Z,98558.00
2023-04-16T04:46:57.856Z,98552.00
2023-04-16T04:49:24.795Z,98547.00
2023-04-16T04:51:51.664Z,98568.00
2023-04-16T04:54:18.539Z,98545.00
2023-04-16T04:56:45.451Z,98562.00
2023-04-16T04:59:12.475Z,98540.00
2023-04-16T05:01:39.546Z,98559.00
2023-04-16T05:04:06.591Z,98576.00
2023-04-16T05:06:33.547Z,98583.00
2023-04-16T05:09:00.467Z,98564.00
2023-04-16T05:11:27.428Z,98560.00
2023-04-16T05:13:54.305Z,98559.00
2023-04-16T05:16:21.233Z,98555.00
2023-04-16T05:18:48.151Z,98577.00
2023-04-16T05:21:15.034Z,98568.00
2023-04-16T05:23:41.867Z,98570.00
2023-04-16T05:26:08.759Z,98571.00
2023-04-16T05:28:35.726Z,98571.00
2023-04-16T05:31:02.773Z,98564.00
2023-04-16T05:33:29.708Z,98568.00
2023-04-16T05:35:56.653Z,98557.00
2023-04-16T05:38:23.580Z,98559.00
2023-04-16T05:40:50.472Z,98551.00
2023-04-16T05:43:17.599Z,98570.00
2023-04-16T05:45:44.450Z,98569.00
2023-04-16T05:48:13.839Z,98571.00
2023-04-16T05:51:17.273Z,98570.00
2023-04-16T05:53:44.208Z,98552.00
2023-04-16T05:56:11.094Z,98529.00
2023-04-16T05:58:40.389Z,98557.00
2023-04-16T06:01:07.290Z,98541.00
2023-04-16T06:03:34.255Z,98478.00
2023-04-16T06:06:01.616Z,98435.00
2023-04-16T06:08:28.511Z,98494.00
2023-04-16T06:10:55.398Z,98449.00
2023-04-16T06:13:22.338Z,98524.00
2023-04-16T06:15:49.263Z,98546.00
2023-04-16T06:18:16.271Z,98499.00
2023-04-16T06:20:43.210Z,98474.00
2023-04-16T06:23:10.163Z,98575.00
2023-04-16T06:25:37.065Z,98486.00
2023-04-16T06:28:04.037Z,98469.00
2023-04-16T06:30:30.966Z,98472.00
2023-04-16T06:32:57.898Z,98473.00
2023-04-16T06:35:24.814Z,98467.00
2023-04-16T06:37:51.688Z,98481.00
2023-04-16T06:40:18.554Z,98481.00
2023-04-16T06:42:45.763Z,98483.00
2023-04-16T06:45:13.546Z,98478.00
2023-04-16T06:47:40.522Z,98484.00
2023-04-16T06:50:07.931Z,98481.00
2023-04-16T06:52:34.841Z,98495.00
2023-04-16T06:55:02.292Z,98508.00
2023-04-16T06:57:29.223Z,98504.00
2023-04-16T06:59:56.099Z,98516.00
2023-04-16T07:02:24.018Z,98524.00
2023-04-16T07:04:51.045Z,98538.00
2023-04-16T07:07:18.384Z,98545.00
2023-04-16T07:09:45.338Z,98547.00
2023-04-16T07:12:12.246Z,98556.00
2023-04-16T07:14:39.243Z,98559.00
2023-04-16T07:17:06.144Z,98563.00
2023-04-16T07:19:33.053Z,98565.00
2023-04-16T07:22:00.368Z,98562.00
2023-04-16T07:24:27.390Z,98567.00
2023-04-16T07:26:54.288Z,98574.00
2023-04-16T07:29:21.287Z,98576.00
2023-04-16T07:31:48.348Z,98577.00
2023-04-16T07:34:15.275Z,98575.00
2023-04-16T07:36:42.144Z,98578.00
2023-04-16T07:39:09.213Z,98582.00
2023-04-16T07:41:36.313Z,98579.00
2023-04-16T07:44:06.199Z,98593.00
2023-04-16T07:46:43.640Z,98572.00
2023-04-16T07:49:13.645Z,98584.00
2023-04-16T07:51:40.600Z,98589.00
2023-04-16T07:54:07.521Z,98576.00
2023-04-16T07:56:34.459Z,98589.00
2023-04-16T07:59:11.053Z,98584.00
2023-04-16T08:01:45.953Z,98594.00
2023-04-16T08:04:13.095Z,98608.00
2023-04-16T08:06:40.216Z,98602.00
2023-04-16T08:09:07.260Z,98604.00
2023-04-16T08:11:34.303Z,98613.00
2023-04-16T08:14:01.222Z,98616.00
2023-04-16T08:16:28.257Z,98613.00
2023-04-16T08:18:55.236Z,98624.00
2023-04-16T08:21:22.310Z,98633.00
2023-04-16T08:23:49.248Z,98629.00
2023-04-16T08:26:16.127Z,98634.00
2023-04-16T08:28:43.007Z,98640.00
2023-04-16T08:31:09.944Z,98635.00
2023-04-16T08:33:36.866Z,98649.00
2023-04-16T08:36:10.604Z,98636.00
2023-04-16T08:38:37.499Z,98649.00
2023-04-16T08:41:06.466Z,98646.00
2023-04-16T08:43:34.222Z,98647.00
2023-04-16T08:46:01.278Z,98644.00
2023-04-16T08:48:32.557Z,98651.00
2023-04-16T08:51:00.072Z,98638.00
2023-04-16T08:53:48.513Z,98638.00
2023-04-16T08:56:15.395Z,98655.00
2023-04-16T08:58:42.245Z,98658.00
2023-04-16T09:01:10.104Z,98653.00
2023-04-16T09:03:37.121Z,98647.00
2023-04-16T09:06:04.375Z,98652.00
2023-04-16T09:08:31.602Z,98650.00
2023-04-16T09:10:58.530Z,98655.00
2023-04-16T09:13:25.764Z,98642.00
2023-04-16T09:15:53.975Z,98652.00
2023-04-16T09:18:20.927Z,98628.00
2023-04-16T09:20:51.142Z,98636.00
2023-04-16T09:23:18.399Z,98631.00
2023-04-16T09:25:45.297Z,98625.00
2023-04-16T09:28:12.145Z,98627.00
2023-04-16T09:30:39.062Z,98617.00
2023-04-16T09:33:19.647Z,98636.00
2023-04-16T09:35:47.991Z,98654.00
2023-04-16T09:38:15.042Z,98649.00
2023-04-16T09:40:41.899Z,98657.00
2023-04-16T09:43:16.445Z,98657.00
2023-04-16T09:45:53.989Z,98671.00
2023-04-16T09:48:31.310Z,98657.00
2023-04-16T09:50:59.118Z,98666.00
2023-04-16T09:53:30.497Z,98665.00
2023-04-16T09:56:11.322Z,98666.00
2023-04-16T09:58:38.314Z,98673.00
2023-04-16T10:01:13.355Z,98676.00
2023-04-16T10:03:40.878Z,98677.00
2023-04-16T10:06:18.700Z,98675.00
2023-04-16T10:08:53.643Z,98672.00
2023-04-16T10:11:21.036Z,98681.00
2023-04-16T10:13:47.963Z,98673.00
2023-04-16T10:16:14.904Z,98674.00
2023-04-16T10:18:43.422Z,98656.00
2023-04-16T10:21:10.314Z,98662.00
2023-04-16T10:23:37.190Z,98659.00
2023-04-16T10:26:04.170Z,98656.00
2023-04-16T10:28:31.142Z,98660.00
2023-04-16T10:30:58.409Z,98652.00
2023-04-16T10:33:36.153Z,98651.00
2023-04-16T10:36:10.988Z,98664.00
2023-04-16T10:38:42.187Z,98651.00
2023-04-16T10:41:09.162Z,98636.00
2023-04-16T10:43:42.929Z,98643.00
2023-04-16T10:46:33.406Z,98642.00
2023-04-16T10:49:01.935Z,98642.00
2023-04-16T10:51:34.197Z,98632.00
2023-04-16T10:54:20.163Z,98634.00
2023-04-16T10:56:47.421Z,98629.00
2023-04-16T10:59:18.321Z,98641.00
2023-04-16T11:01:55.841Z,98629.00
2023-04-16T11:04:27.003Z,98609.00
2023-04-16T11:07:12.372Z,98611.00
2023-04-16T11:09:58.390Z,98615.00
2023-04-16T11:12:40.985Z,98602.00
2023-04-16T11:15:09.928Z,98593.00
2023-04-16T11:17:47.298Z,98588.00
2023-04-16T11:20:24.765Z,98588.00
2023-04-16T11:22:53.015Z,98599.00
2023-04-16T11:25:27.791Z,98580.00
2023-04-16T11:27:54.820Z,98584.00
2023-04-16T11:30:36.691Z,98587.00
2023-04-16T11:33:09.438Z,98596.00
2023-04-16T11:35:36.391Z,98595.00
2023-04-16T11:38:03.336Z,98594.00
2023-04-16T11:40:30.559Z,98607.00
2023-04-16T11:43:13.179Z,98587.00
2023-04-16T11:45:54.081Z,98590.00
2023-04-16T11:48:20.993Z,98577.00
2023-04-16T11:50:56.275Z,98588.00
2023-04-16T11:53:23.139Z,98577.00
2023-04-16T11:55:50.117Z,98583.00
2023-04-16T11:58:17.071Z,98586.00
2023-04-16T12:00:44.637Z,98572.00
2023-04-16T12:03:11.813Z,98566.00
2023-04-16T12:05:40.206Z,98575.00
2023-04-16T12:08:11.594Z,98567.00
2023-04-16T12:10:53.517Z,98571.00
2023-04-16T12:13:20.451Z,98566.00
2023-04-16T12:15:56.788Z,98571.00
2023-04-16T12:18:25.122Z,98567.00
2023-04-16T12:20:52.050Z,98559.00
2023-04-16T12:23:29.646Z,98559.00
2023-04-16T12:25:57.328Z,98558.00
2023-04-16T12:28:34.982Z,98554.00
2023-04-16T12:31:02.616Z,98534.00
2023-04-16T12:33:29.674Z,98536.00
2023-04-16T12:35:56.958Z,98530.00
2023-04-16T12:38:24.741Z,98555.00
2023-04-16T12:40:52.139Z,98540.00
2023-04-16T12:43:19.063Z,98522.00
2023-04-16T12:45:45.981Z,98517.00
2023-04-16T12:48:12.972Z,98514.00
2023-04-16T12:50:39.947Z,98512.00
2023-04-16T12:53:06.866Z,98523.00
2023-04-16T12:55:33.802Z,98522.00
2023-04-16T12:58:00.665Z,98511.00
2023-04-16T13:00:27.583Z,98516.00
2023-04-16T13:02:54.638Z,98522.00
2023-04-16T13:05:21.729Z,98510.00
2023-04-16T13:07:48.618Z,98521.00
2023-04-16T13:10:15.527Z,98521.00
2023-04-16T13:12:42.439Z,98519.00
2023-04-16T13:15:10.193Z,98529.00
2023-04-16T13:17:37.090Z,98527.00
2023-04-16T13:20:04.429Z,98544.00
2023-04-16T13:22:31.346Z,98534.00
2023-04-16T13:24:58.200Z,98527.00
2023-04-16T13:27:25.227Z,98525.00
2023-04-16T13:29:52.115Z,98518.00
2023-04-16T13:32:19.023Z,98523.00
2023-04-16T13:34:45.921Z,98520.00
2023-04-16T13:37:13.036Z,98524.00
2023-04-16T13:39:39.972Z,98537.00
2023-04-16T13:42:06.891Z,98548.00
2023-04-16T13:44:33.828Z,98539.00
2023-04-16T13:47:00.833Z,98523.00
2023-04-16T13:49:27.732Z,98517.00
2023-04-16T13:51:54.608Z,98525.00
2023-04-16T13:54:21.552Z,98517.00
2023-04-16T13:56:50.111Z,98527.00
2023-04-16T13:59:17.026Z,98516.00
2023-04-16T14:01:43.970Z,98510.00
2023-04-16T14:04:10.960Z,98510.00
2023-04-16T14:06:37.848Z,98518.00
2023-04-16T14:09:04.743Z,98509.00
2023-04-16T14:11:31.950Z,98509.00
2023-04-16T14:13:58.888Z,98511.00
2023-04-16T14:16:26.470Z,98517.00
2023-04-16T14:18:53.543Z,98509.00
2023-04-16T14:21:20.502Z,98507.00
2023-04-16T14:23:47.378Z,98522.00
2023-04-16T14:26:14.531Z,98516.00
2023-04-16T14:28:41.730Z,98510.00
2023-04-16T14:31:08.698Z,98520.00
2023-04-16T14:33:35.619Z,98514.00
2023-04-16T14:36:03.382Z,98511.00
2023-04-16T14:38:30.823Z,98511.00
2023-04-16T14:40:57.724Z,98507.00
2023-04-16T14:43:24.639Z,98515.00
2023-04-16T14:45:51.652Z,98501.00
2023-04-16T14:48:18.883Z,98507.00
2023-04-16T14:50:45.939Z,98509.00
2023-04-16T14:53:12.795Z,98502.00
2023-04-16T14:55:39.705Z,98512.00
2023-04-16T14:58:06.618Z,98515.00
2023-04-16T15:00:34.930Z,98520.00
2023-04-16T15:03:02.047Z,98501.00
2023-04-16T15:05:30.232Z,98503.00
2023-04-16T15:07:57.284Z,98497.00
2023-04-16T15:10:24.188Z,98503.00
2023-04-16T15:12:51.146Z,98498.00
2023-04-16T15:15:18.065Z,98489.00
2023-04-16T15:17:45.040Z,98509.00
2023-04-16T15:20:12.774Z,98506.00
2023-04-16T15:22:40.319Z,98490.00
2023-04-16T15:25:07.907Z,98489.00
2023-04-16T15:27:34.789Z,98502.00
2023-04-16T15:30:01.908Z,98488.00
2023-04-16T15:32:28.965Z,98504.00
2023-04-16T15:34:55.889Z,98510.00
2023-04-16T15:37:22.833Z,98509.00
2023-04-16T15:39:49.786Z,98511.00
2023-04-16T15:42:16.833Z,98510.00
2023-04-16T15:44:43.736Z,98507.00
2023-04-16T15:47:10.613Z,98500.00
2023-04-16T15:49:37.498Z,98503.00
2023-04-16T15:52:04.717Z,98502.00
2023-04-16T15:54:31.833Z,98515.00
2023-04-16T15:56:59.096Z,98504.00
2023-04-16T15:59:29.172Z,98518.00
2023-04-16T16:01:56.110Z,98512.00
2023-04-16T16:04:23.411Z,98515.00
2023-04-16T16:06:50.877Z,98515.00
2023-04-16T16:09:17.875Z,98519.00
2023-04-16T16:11:44.784Z,98522.00
2023-04-16T16:14:11.717Z,98514.00
2023-04-16T16:16:38.929Z,98517.00
2023-04-16T16:19:05.942Z,98522.00
2023-04-16T16:21:32.888Z,98520.00
2023-04-16T16:23:59.861Z,98522.00
2023-04-16T16:26:26.773Z,98524.00
2023-04-16T16:28:53.678Z,98504.00
2023-04-16T16:31:20.667Z,98522.00
2023-04-16T16:33:48.292Z,98515.00
2023-04-16T16:36:15.252Z,98524.00
2023-04-16T16:38:42.197Z,98536.00
2023-04-16T16:41:09.197Z,98542.00
2023-04-16T16:43:36.203Z,98541.00
2023-04-16T16:46:03.191Z,98537.00
2023-04-16T16:48:30.113Z,98535.00
2023-04-16T16:50:57.054Z,98540.00
2023-04-16T16:53:23.989Z,98542.00
2023-04-16T16:55:50.896Z,98536.00
2023-04-16T16:58:17.838Z,98551.00
2023-04-16T17:00:44.827Z,98551.00
2023-04-16T17:03:11.912Z,98543.00
2023-04-16T17:08:17.427Z,98552.00
2023-04-16T17:10:44.471Z,98538.00
2023-04-16T17:13:11.368Z,98557.00
2023-04-16T17:15:38.280Z,98548.00
2023-04-16T17:18:05.390Z,98548.00
2023-04-16T17:20:32.450Z,98556.00
2023-04-16T17:22:59.375Z,98550.00
2023-04-16T17:25:26.324Z,98558.00
2023-04-16T17:27:53.250Z,98559.00
2023-04-16T17:30:20.228Z,98557.00
2023-04-16T17:32:47.113Z,98571.00
2023-04-16T17:35:14.078Z,98563.00
2023-04-16T17:37:41.055Z,98575.00
2023-04-16T17:40:08.722Z,98590.00
2023-04-16T17:42:36.348Z,98576.00
2023-04-16T17:45:03.772Z,98590.00
2023-04-16T17:47:30.680Z,98593.00
2023-04-16T17:49:57.632Z,98590.00
2023-04-16T17:52:24.568Z,98594.00
2023-04-16T17:54:51.469Z,98579.00
2023-04-16T17:57:18.418Z,98597.00
2023-04-16T17:59:45.336Z,98579.00
2023-04-16T18:02:12.251Z,98594.00
2023-04-16T18:04:39.275Z,98588.00
2023-04-16T18:07:06.245Z,98593.00
2023-04-16T18:09:33.164Z,98599.00
2023-04-16T18:12:00.125Z,98596.00
2023-04-16T18:14:26.990Z,98607.00
2023-04-16T18:16:53.855Z,98615.00
2023-04-16T18:19:20.832Z,98615.00
2023-04-16T18:21:47.761Z,98632.00
2023-04-16T18:24:14.869Z,98630.00
2023-04-16T18:26:41.824Z,98628.00
2023-04-16T18:29:09.259Z,98634.00
2023-04-16T18:31:36.295Z,98626.00
2023-04-16T18:34:03.257Z,98646.00
2023-04-16T18:36:30.247Z,98651.00
2023-04-16T18:39:02.279Z,98656.00
2023-04-16T18:41:30.045Z,98659.00
2023-04-16T18:43:57.017Z,98658.00
2023-04-16T18:46:23.986Z,98665.00
2023-04-16T18:48:50.977Z,98672.00
2023-04-16T18:51:17.857Z,98664.00
2023-04-16T18:53:44.914Z,98669.00
2023-04-16T18:56:11.886Z,98673.00
2023-04-16T18:58:38.842Z,98679.00
2023-04-16T19:01:05.823Z,98687.00
2023-04-16T19:03:32.856Z,98701.00
2023-04-16T19:05:59.812Z,98703.00
2023-04-16T19:08:26.704Z,98703.00
2023-04-16T19:10:53.688Z,98708.00
2023-04-16T19:13:20.619Z,98713.00
2023-04-16T19:15:47.568Z,98709.00
2023-04-16T19:18:14.543Z,98722.00
2023-04-16T19:20:41.485Z,98722.00
2023-04-16T19:23:08.385Z,98727.00
2023-04-16T19:25:35.826Z,98737.00
2023-04-16T19:28:03.720Z,98719.00
2023-04-16T19:30:30.961Z,98748.00
2023-04-16T19:32:58.005Z,98735.00
2023-04-16T19:35:25.000Z,98743.00
2023-04-16T19:37:52.001Z,98738.00
2023-04-16T19:40:19.061Z,98739.00
2023-04-16T19:42:45.993Z,98747.00
2023-04-16T19:45:12.945Z,98751.00
2023-04-16T19:47:39.954Z,98749.00
2023-04-16T19:50:07.595Z,98746.00
2023-04-16T19:52:34.516Z,98765.00
2023-04-16T19:55:01.550Z,98766.00
2023-04-16T19:57:28.411Z,98771.00
2023-04-16T19:59:55.385Z,98765.00
2023-04-16T20:02:22.408Z,98761.00
2023-04-16T20:04:49.483Z,98774.00
2023-04-16T20:07:16.376Z,98767.00
2023-04-16T20:09:43.255Z,98768.00
2023-04-16T20:12:10.185Z,98768.00
2023-04-16T20:14:37.141Z,98770.00
2023-04-16T20:17:04.191Z,98772.00
2023-04-16T20:19:31.160Z,98801.00
2023-04-16T20:21:58.064Z,98784.00
2023-04-16T20:24:25.037Z,98791.00
2023-04-16T20:26:51.962Z,98803.00
2023-04-16T20:29:18.941Z,98824.00
2023-04-16T20:31:45.854Z,98829.00
2023-04-16T20:34:12.905Z,98829.00
2023-04-16T20:36:39.862Z,98832.00
2023-04-16T20:39:06.804Z,98827.00
2023-04-16T20:41:33.792Z,98838.00
2023-04-16T20:44:00.666Z,98835.00
2023-04-16T20:46:27.626Z,98850.00
2023-04-16T20:48:54.577Z,98844.00
2023-04-16T20:51:21.556Z,98849.00
2023-04-16T20:53:48.485Z,98838.00
2023-04-16T20:56:15.535Z,98852.00
2023-04-16T20:58:42.470Z,98857.00
2023-04-16T21:01:09.413Z,98861.00
2023-04-16T21:03:36.565Z,98868.00
2023-04-16T21:06:03.675Z,98866.00
2023-04-16T21:08:30.553Z,98884.00
2023-04-16T21:10:57.478Z,98886.00
2023-04-16T21:13:24.374Z,98869.00
2023-04-16T21:15:51.426Z,98880.00
2023-04-16T21:18:18.429Z,98877.00
2023-04-16T21:20:45.403Z,98883.00
2023-04-16T21:23:12.335Z,98888.00
2023-04-16T21:25:39.225Z,98893.00
2023-04-16T21:28:06.167Z,98895.00
2023-04-16T21:30:33.089Z,98892.00
2023-04-16T21:33:00.026Z,98905.00
2023-04-16T21:35:26.925Z,98902.00
2023-04-16T21:37:53.817Z,98905.00
2023-04-16T21:40:20.748Z,98909.00
2023-04-16T21:42:47.654Z,98913.00
2023-04-16T21:45:14.665Z,98906.00
2023-04-16T21:47:41.598Z,98922.00
2023-04-16T21:50:09.044Z,98918.00
2023-04-16T21:52:35.976Z,98921.00
2023-04-16T21:55:02.879Z,98932.00
2023-04-16T21:57:29.741Z,98932.00
2023-04-16T21:59:56.604Z,98933.00
2023-04-16T22:02:23.616Z,98928.00
2023-04-16T22:04:50.854Z,98919.00
2023-04-16T22:07:17.774Z,98934.00
2023-04-16T22:09:44.691Z,98934.00
2023-04-16T22:12:11.604Z,98933.00
2023-04-16T22:14:43.958Z,98932.00
2023-04-16T22:17:13.260Z,98932.00
2023-04-16T22:19:40.137Z,98927.00
2023-04-16T22:22:06.981Z,98922.00
2023-04-16T22:24:33.825Z,98926.00
2023-04-16T22:27:00.708Z,98932.00
2023-04-16T22:29:27.618Z,98929.00
2023-04-16T22:31:54.705Z,98923.00
2023-04-16T22:34:21.782Z,98933.00
2023-04-16T22:36:48.692Z,98933.00
2023-04-16T22:39:15.560Z,98933.00
2023-04-16T22:41:42.456Z,98920.00
2023-04-16T22:44:09.318Z,98933.00
2023-04-16T22:46:36.372Z,98931.00
2023-04-16T22:49:03.467Z,98940.00
2023-04-16T22:51:30.638Z,98923.00
2023-04-16T22:53:57.535Z,98934.00
2023-04-16T22:56:24.416Z,98922.00
2023-04-16T22:58:51.296Z,98914.00
2023-04-16T23:01:18.177Z,98934.00
2023-04-16T23:03:45.105Z,98931.00
2023-04-16T23:06:12.114Z,98932.00
2023-04-16T23:08:39.029Z,98925.00
2023-04-16T23:11:05.936Z,98924.00
2023-04-16T23:13:32.817Z,98915.00
2023-04-16T23:15:59.741Z,98917.00
2023-04-16T23:18:26.803Z,98908.00
2023-04-16T23:20:53.851Z,98924.00
2023-04-16T23:23:20.705Z,98927.00
2023-04-16T23:25:47.633Z,98917.00
2023-04-16T23:28:14.529Z,98927.00
2023-04-16T23:30:41.431Z,98926.00
2023-04-16T23:33:08.328Z,98901.00
2023-04-16T23:35:35.268Z,98910.00
2023-04-16T23:38:02.260Z,98913.00
2023-04-16T23:40:29.430Z,98908.00
2023-04-16T23:42:56.379Z,98909.00
2023-04-16T23:45:23.311Z,98909.00
2023-04-16T23:47:50.370Z,98902.00
2023-04-16T23:50:17.581Z,98899.00
2023-04-16T23:52:44.495Z,98893.00
2023-04-16T23:55:11.597Z,98898.00
2023-04-16T23:57:38.550Z,98896.00
